Alleghany, California
Current Conditions -  °F | °C
As of 1:52 PM on Tuesday 21 Oct 2014 (Local Time) from KBLU Reporting Station
Clear Clear  
Wind Chill: 53°   Ceiling: Unl
Heat Index: 53°   Visibility: 10mi
Dew Point: 26°   Wind: 8mph
Humidity: 35%   Direction: 200°SSW
Pressure: 30.11"   Gusts: NA
Location:  39.47°N, 120.85°W
Report Text: KBLU 212052Z AUTO 20007KT 160V240 10SM CLR 12/M03 A3011 RMK AO2 SLP167 T01171033 58006
Loading
Personal Weather Stations






























Interactive Weather Map
Tropical Storm Tracking
New forecast layout! Learn more

10-Day Weather Forecast

Advertisements
Track Severe Weather on mobile